Time;durP1;ratioP1;P1;durP2;ratioP2;P2;SDS_P1;SDS_P2;PMS_P1;PMS_P2;Temp;Humidity;BMP_temperature;BMP_pressure;BME280_temperature;BME280_humidity;BME280_pressure;Samples;Min_cycle;Max_cycle;Signal;HPM_P1;HPM_P2
2021/05/08 00:01:40;;;;;;;3.90;3.17;;;11.90;53.30;;;;;;4759209;30;20086;-87
2021/05/08 00:04:06;;;;;;;4.43;3.20;;;11.90;53.40;;;;;;4745659;30;20054;-86
2021/05/08 00:06:34;;;;;;;4.97;3.15;;;11.80;53.40;;;;;;4723302;30;20037;-87
2021/05/08 00:09:01;;;;;;;4.30;3.15;;;11.80;53.60;;;;;;4759632;30;20162;-87
2021/05/08 00:11:27;;;;;;;5.03;3.35;;;11.70;53.60;;;;;;4759852;30;20100;-88
2021/05/08 00:13:52;;;;;;;3.75;3.13;;;11.70;53.60;;;;;;4760866;30;20083;-88
2021/05/08 00:16:18;;;;;;;4.18;3.10;;;11.70;53.70;;;;;;4759158;30;20148;-87
2021/05/08 00:18:44;;;;;;;4.25;3.47;;;11.60;53.70;;;;;;4730403;30;20048;-87
2021/05/08 00:21:10;;;;;;;5.10;3.17;;;11.60;53.70;;;;;;4760091;30;20024;-87
2021/05/08 00:23:35;;;;;;;4.10;3.13;;;11.50;53.80;;;;;;4774589;30;20028;-87
2021/05/08 00:26:03;;;;;;;4.20;3.38;;;11.50;53.90;;;;;;4759928;30;20074;-88
2021/05/08 00:28:29;;;;;;;3.92;3.03;;;11.40;54.50;;;;;;4744982;30;20047;-88
2021/05/08 00:30:54;;;;;;;4.75;3.28;;;11.40;54.50;;;;;;4727980;30;20033;-87
2021/05/08 00:33:20;;;;;;;4.63;3.30;;;11.40;53.90;;;;;;4744839;30;20108;-87
2021/05/08 00:35:46;;;;;;;4.75;3.47;;;11.30;53.90;;;;;;4760051;30;20471;-87
2021/05/08 00:38:12;;;;;;;4.53;3.13;;;11.30;54.00;;;;;;4745544;30;20382;-87
2021/05/08 00:40:38;;;;;;;4.00;3.10;;;11.30;54.00;;;;;;4744935;30;20043;-87
2021/05/08 00:43:04;;;;;;;4.28;3.60;;;11.20;54.00;;;;;;4745245;30;20131;-88
2021/05/08 00:45:31;;;;;;;4.03;2.92;;;11.20;54.10;;;;;;4731271;30;20064;-87
2021/05/08 00:48:06;;;;;;;4.75;3.15;;;11.20;54.10;;;;;;4759415;30;20036;-87
2021/05/08 00:50:33;;;;;;;4.30;3.55;;;11.10;54.10;;;;;;4734313;30;20036;-88
2021/05/08 00:53:01;;;;;;;4.18;3.05;;;11.10;54.10;;;;;;4759948;30;20060;-87
2021/05/08 00:55:27;;;;;;;5.13;3.42;;;11.10;54.20;;;;;;4743146;30;20036;-87
2021/05/08 00:57:53;;;;;;;5.13;3.63;;;11.00;54.20;;;;;;4757627;30;20040;-87
2021/05/08 01:00:20;;;;;;;4.28;3.33;;;11.00;54.30;;;;;;4742203;30;20052;-88
2021/05/08 01:02:46;;;;;;;4.18;3.17;;;10.90;54.30;;;;;;4742095;30;20040;-87
2021/05/08 01:05:13;;;;;;;4.57;3.45;;;10.90;54.30;;;;;;4741865;30;20032;-87
2021/05/08 01:07:39;;;;;;;5.13;3.20;;;10.90;54.40;;;;;;4757638;30;20047;-87
2021/05/08 01:10:08;;;;;;;3.85;3.10;;;10.90;54.40;;;;;;4756593;30;20482;-86
2021/05/08 01:12:34;;;;;;;5.63;3.63;;;10.80;54.50;;;;;;4742283;30;20541;-87
2021/05/08 01:15:01;;;;;;;4.55;3.70;;;10.80;54.50;;;;;;4748930;30;20474;-87
2021/05/08 01:17:29;;;;;;;5.57;3.60;;;10.70;54.50;;;;;;4742284;30;20054;-87
2021/05/08 01:19:55;;;;;;;4.78;3.53;;;10.70;54.50;;;;;;4727975;30;20039;-88
2021/05/08 01:22:22;;;;;;;4.40;3.38;;;10.70;54.50;;;;;;4742702;30;20036;-87
2021/05/08 01:24:48;;;;;;;4.90;3.70;;;10.70;54.60;;;;;;4744166;30;20054;-87
2021/05/08 01:27:15;;;;;;;5.15;3.80;;;10.60;54.60;;;;;;4756897;30;20055;-87
2021/05/08 01:29:41;;;;;;;4.75;3.67;;;10.60;54.60;;;;;;4756088;30;20444;-87
2021/05/08 01:32:11;;;;;;;4.60;3.33;;;10.50;54.60;;;;;;4756575;30;20025;-87
2021/05/08 01:34:37;;;;;;;5.25;3.63;;;10.50;54.70;;;;;;4742564;30;20043;-87
2021/05/08 01:37:03;;;;;;;4.53;3.67;;;10.50;54.70;;;;;;4756947;30;20044;-87
2021/05/08 01:39:30;;;;;;;5.45;4.15;;;10.50;54.70;;;;;;4741380;30;20134;-86
2021/05/08 01:41:56;;;;;;;4.00;3.20;;;10.40;54.80;;;;;;4752938;30;20025;-86
2021/05/08 01:44:22;;;;;;;5.20;3.95;;;10.40;54.80;;;;;;4756520;30;20051;-87
2021/05/08 01:46:49;;;;;;;5.32;3.65;;;10.40;54.80;;;;;;4742762;30;20077;-87
2021/05/08 01:49:15;;;;;;;4.45;3.60;;;10.40;54.90;;;;;;4728213;30;20048;-86
2021/05/08 01:51:41;;;;;;;5.07;3.60;;;10.40;54.90;;;;;;4743961;30;20394;-87
2021/05/08 01:54:07;;;;;;;4.85;4.05;;;10.30;54.90;;;;;;4737608;30;20032;-87
2021/05/08 01:56:33;;;;;;;4.68;3.47;;;10.30;54.90;;;;;;4755609;30;20040;-88
2021/05/08 01:59:04;;;;;;;4.70;3.83;;;10.20;54.90;;;;;;4754710;30;20160;-87
2021/05/08 02:01:30;;;;;;;4.55;3.65;;;10.20;54.90;;;;;;4754932;30;20044;-86
2021/05/08 02:03:56;;;;;;;4.57;3.65;;;10.20;55.00;;;;;;4740812;30;20038;-87
2021/05/08 02:06:23;;;;;;;5.25;4.00;;;10.10;55.00;;;;;;4755638;30;20048;-87
2021/05/08 02:09:12;;;;;;;5.07;3.60;;;10.10;55.00;;;;;;4771911;30;20513;-86
2021/05/08 02:11:45;;;;;;;4.85;3.70;;;10.10;55.00;;;;;;4740013;30;20041;-87
2021/05/08 02:14:11;;;;;;;4.97;3.80;;;10.10;55.00;;;;;;4755830;30;20057;-87
2021/05/08 02:16:37;;;;;;;4.65;3.60;;;10.00;55.00;;;;;;4740304;30;20505;-87
2021/05/08 02:19:03;;;;;;;5.63;4.10;;;10.00;55.10;;;;;;4740859;30;20040;-87
2021/05/08 02:21:29;;;;;;;5.18;4.07;;;10.00;55.20;;;;;;4755305;30;20039;-87
2021/05/08 02:23:55;;;;;;;4.70;3.63;;;10.00;55.20;;;;;;4766674;30;20371;-87
2021/05/08 02:26:22;;;;;;;5.35;4.07;;;10.00;55.30;;;;;;4741628;30;20044;-87
2021/05/08 02:28:48;;;;;;;4.90;3.78;;;9.90;55.20;;;;;;4730616;30;20040;-87
2021/05/08 02:31:14;;;;;;;4.78;3.75;;;9.90;55.30;;;;;;4726707;30;20372;-87
2021/05/08 02:33:40;;;;;;;6.57;4.05;;;9.90;55.30;;;;;;4755364;30;20597;-87
2021/05/08 02:36:06;;;;;;;4.97;4.00;;;9.90;55.40;;;;;;4755540;30;20075;-87
2021/05/08 02:38:32;;;;;;;4.63;3.78;;;9.80;55.40;;;;;;4726340;30;20032;-87
2021/05/08 02:40:59;;;;;;;4.22;3.63;;;9.80;55.40;;;;;;4740928;30;20064;-86
2021/05/08 02:43:26;;;;;;;4.80;3.65;;;9.80;55.50;;;;;;4754682;30;20051;-86
2021/05/08 02:45:59;;;;;;;5.28;3.83;;;9.70;55.40;;;;;;4727680;30;20036;-86
2021/05/08 02:48:25;;;;;;;5.53;3.92;;;9.80;55.60;;;;;;4740308;30;20040;-86
2021/05/08 02:50:54;;;;;;;5.05;4.03;;;9.70;55.60;;;;;;4725956;30;20450;-87
2021/05/08 02:53:21;;;;;;;5.40;4.00;;;9.70;55.60;;;;;;4754372;30;20047;-87
2021/05/08 02:55:47;;;;;;;4.90;3.90;;;9.70;55.60;;;;;;4754038;30;20127;-86
2021/05/08 02:58:14;;;;;;;5.65;3.95;;;9.70;55.60;;;;;;4754877;30;20044;-85
2021/05/08 03:00:43;;;;;;;4.63;3.50;;;9.70;55.70;;;;;;4740139;30;20043;-86
2021/05/08 03:03:12;;;;;;;5.43;3.80;;;9.70;55.70;;;;;;4740315;30;20032;-86
2021/05/08 03:05:40;;;;;;;4.97;3.55;;;9.70;55.80;;;;;;4726028;30;20105;-87
2021/05/08 03:08:14;;;;;;;5.35;3.60;;;9.60;55.80;;;;;;4740934;30;20064;-86
2021/05/08 03:10:40;;;;;;;5.03;3.97;;;9.60;55.80;;;;;;4759732;30;20050;-86
2021/05/08 03:13:07;;;;;;;5.38;4.03;;;9.60;55.80;;;;;;4750922;30;20020;-87
2021/05/08 03:15:37;;;;;;;5.15;3.90;;;9.60;55.80;;;;;;4755403;30;20040;-86
2021/05/08 03:18:05;;;;;;;4.65;3.63;;;9.60;55.90;;;;;;4754556;30;20047;-86
2021/05/08 03:20:31;;;;;;;5.35;3.90;;;9.60;55.90;;;;;;4734188;30;20032;-85
2021/05/08 03:22:59;;;;;;;6.18;4.13;;;9.60;55.90;;;;;;4759317;30;20039;-87
2021/05/08 03:25:26;;;;;;;4.82;3.83;;;9.60;56.00;;;;;;4764400;30;20041;-87
2021/05/08 03:27:52;;;;;;;4.03;3.38;;;9.60;56.00;;;;;;4764674;30;20055;-87
2021/05/08 03:30:20;;;;;;;5.00;3.75;;;9.60;56.00;;;;;;4760794;30;20040;-87
2021/05/08 03:32:49;;;;;;;6.40;3.90;;;9.60;56.10;;;;;;4741026;30;20031;-86
2021/05/08 03:35:15;;;;;;;5.18;3.80;;;9.50;56.00;;;;;;4740516;30;20040;-87
2021/05/08 03:37:43;;;;;;;5.97;4.20;;;9.60;56.10;;;;;;4754896;30;20052;-87
2021/05/08 03:40:10;;;;;;;5.00;3.75;;;9.50;56.10;;;;;;4740491;30;20032;-87
2021/05/08 03:42:36;;;;;;;4.60;3.45;;;9.50;56.20;;;;;;4740288;30;20036;-86
2021/05/08 03:45:02;;;;;;;5.03;3.97;;;9.50;56.10;;;;;;4739492;30;20040;-87
2021/05/08 03:47:27;;;;;;;4.82;3.78;;;9.50;56.20;;;;;;4740465;30;20143;-87
2021/05/08 03:49:53;;;;;;;4.30;3.60;;;9.50;56.20;;;;;;4754918;30;20035;-88
2021/05/08 03:52:19;;;;;;;4.60;3.83;;;9.50;56.20;;;;;;4725711;30;20036;-86
2021/05/08 03:54:45;;;;;;;5.35;4.03;;;9.50;56.20;;;;;;4725038;30;20063;-87
2021/05/08 03:57:11;;;;;;;5.47;3.88;;;9.50;56.20;;;;;;4758280;30;20127;-86
2021/05/08 03:59:37;;;;;;;5.03;4.10;;;9.50;56.30;;;;;;4725167;30;20032;-87
2021/05/08 04:02:02;;;;;;;4.55;3.50;;;9.50;56.30;;;;;;4753719;30;20122;-86
2021/05/08 04:04:28;;;;;;;5.03;3.80;;;9.50;56.30;;;;;;4739832;30;20046;-87
2021/05/08 04:06:54;;;;;;;5.65;3.80;;;9.40;56.30;;;;;;4753940;30;20074;-87
2021/05/08 04:09:20;;;;;;;5.25;4.00;;;9.40;56.30;;;;;;4741216;30;20045;-86
2021/05/08 04:11:46;;;;;;;5.45;3.80;;;9.40;56.30;;;;;;4754293;30;20032;-87
2021/05/08 04:14:12;;;;;;;5.63;3.90;;;9.40;56.30;;;;;;4724734;30;20048;-86
2021/05/08 04:16:38;;;;;;;4.93;3.80;;;9.40;56.40;;;;;;4754460;30;20046;-85
2021/05/08 04:19:04;;;;;;;4.65;3.80;;;9.40;56.40;;;;;;4753640;30;20036;-86
2021/05/08 04:21:30;;;;;;;5.25;4.05;;;9.40;56.50;;;;;;4739339;30;20053;-86
2021/05/08 04:23:56;;;;;;;5.43;3.92;;;9.40;56.50;;;;;;4754381;30;20033;-86
2021/05/08 04:26:23;;;;;;;5.18;3.85;;;9.30;56.40;;;;;;4738617;30;20089;-86
2021/05/08 04:28:49;;;;;;;5.00;3.83;;;9.30;56.40;;;;;;4754708;30;20025;-87
2021/05/08 04:31:15;;;;;;;5.25;3.80;;;9.30;56.40;;;;;;4728244;30;20038;-87
2021/05/08 04:33:43;;;;;;;4.82;3.63;;;9.30;56.50;;;;;;4742813;30;20043;-86
2021/05/08 04:36:09;;;;;;;4.90;3.78;;;9.30;56.50;;;;;;4742807;30;20044;-86
2021/05/08 04:38:40;;;;;;;5.68;3.97;;;9.30;56.50;;;;;;4728206;30;20039;-87
2021/05/08 04:41:06;;;;;;;5.70;4.18;;;9.30;56.50;;;;;;4757454;30;20047;-87
2021/05/08 04:43:32;;;;;;;5.20;3.97;;;9.20;56.50;;;;;;4741391;30;20032;-87
2021/05/08 04:45:58;;;;;;;5.30;3.72;;;9.20;56.50;;;;;;4756897;30;20028;-87
2021/05/08 04:48:26;;;;;;;5.45;4.38;;;9.20;56.60;;;;;;4763957;30;20048;-87
2021/05/08 04:50:53;;;;;;;5.63;4.28;;;9.20;56.60;;;;;;4757306;30;20047;-87
2021/05/08 04:53:23;;;;;;;5.47;4.20;;;9.20;56.60;;;;;;4742409;30;20028;-87
2021/05/08 04:55:50;;;;;;;5.10;3.78;;;9.20;56.70;;;;;;4748173;30;20181;-87
2021/05/08 04:58:17;;;;;;;5.75;4.15;;;9.20;56.70;;;;;;4748667;30;20062;-87
2021/05/08 05:00:43;;;;;;;5.03;3.85;;;9.20;56.70;;;;;;4757044;30;20054;-86
2021/05/08 05:03:09;;;;;;;5.07;3.95;;;9.20;56.70;;;;;;4746066;30;20386;-83
2021/05/08 05:05:34;;;;;;;5.68;4.38;;;9.20;56.70;;;;;;4756936;30;20120;-86
2021/05/08 05:08:00;;;;;;;5.70;4.13;;;9.20;56.80;;;;;;4747231;30;20139;-85
2021/05/08 05:10:26;;;;;;;6.10;4.20;;;9.20;56.80;;;;;;4757531;30;20115;-86
2021/05/08 05:12:52;;;;;;;6.03;4.63;;;9.20;56.80;;;;;;4742457;30;20083;-87
2021/05/08 05:15:19;;;;;;;5.97;4.30;;;9.20;56.80;;;;;;4756547;30;20063;-87
2021/05/08 05:17:46;;;;;;;5.55;3.95;;;9.20;56.90;;;;;;4741481;30;20090;-87
2021/05/08 05:20:13;;;;;;;5.53;4.18;;;9.20;56.90;;;;;;4755892;30;20037;-86
2021/05/08 05:22:39;;;;;;;5.60;4.03;;;9.20;56.90;;;;;;4741747;30;20183;-88
2021/05/08 05:25:06;;;;;;;5.70;4.20;;;9.20;56.90;;;;;;4760652;30;20047;-87
2021/05/08 05:27:33;;;;;;;5.88;4.18;;;9.20;56.90;;;;;;4743987;30;20123;-88
2021/05/08 05:29:59;;;;;;;5.28;3.92;;;9.30;57.60;;;;;;4757070;30;20086;-87
2021/05/08 05:32:26;;;;;;;5.30;4.10;;;9.30;57.00;;;;;;4765706;30;20462;-87
2021/05/08 05:34:52;;;;;;;5.50;4.00;;;9.30;57.00;;;;;;4760569;30;20028;-87
2021/05/08 05:37:18;;;;;;;5.20;3.72;;;9.30;57.00;;;;;;4755648;30;20127;-88
2021/05/08 05:39:43;;;;;;;5.70;4.32;;;9.30;57.00;;;;;;4748207;30;20082;-89
2021/05/08 05:42:09;;;;;;;6.35;3.92;;;9.30;57.00;;;;;;4757984;30;20036;-88
2021/05/08 05:44:38;;;;;;;5.40;4.10;;;9.30;57.00;;;;;;4723946;30;20074;-88
2021/05/08 05:47:04;;;;;;;6.07;4.63;;;9.30;57.00;;;;;;4742191;30;20044;-88
2021/05/08 05:49:31;;;;;;;5.00;3.67;;;9.30;57.10;;;;;;4757718;30;20036;-88
2021/05/08 05:51:56;;;;;;;5.85;4.30;;;9.30;57.10;;;;;;4753530;30;20522;-87
2021/05/08 05:54:22;;;;;;;5.65;3.83;;;9.30;57.10;;;;;;4741824;30;20044;-87
2021/05/08 05:56:48;;;;;;;5.15;3.97;;;9.30;57.10;;;;;;4727184;30;20491;-87
2021/05/08 05:59:14;;;;;;;4.25;3.42;;;9.40;57.10;;;;;;4746827;30;20038;-86
2021/05/08 06:01:39;;;;;;;4.75;3.75;;;9.30;57.10;;;;;;4744477;30;20036;-88
2021/05/08 06:04:06;;;;;;;5.28;4.03;;;9.40;57.20;;;;;;4741820;30;20036;-88
2021/05/08 06:06:33;;;;;;;5.68;3.95;;;9.40;57.10;;;;;;4726512;30;20040;-88
2021/05/08 06:08:59;;;;;;;5.15;3.95;;;9.40;57.10;;;;;;4740165;30;20147;-90
2021/05/08 06:11:25;;;;;;;5.20;4.30;;;9.40;57.10;;;;;;4746310;30;20159;-88
2021/05/08 06:13:50;;;;;;;5.13;3.63;;;9.50;57.20;;;;;;4766854;30;20036;-88
2021/05/08 06:16:16;;;;;;;4.80;3.72;;;9.50;57.20;;;;;;4723480;30;20040;-87
2021/05/08 06:18:42;;;;;;;5.00;3.88;;;9.50;57.20;;;;;;4755890;30;20597;-88
2021/05/08 06:21:08;;;;;;;5.28;3.90;;;9.50;57.20;;;;;;4752407;30;20494;-91
2021/05/08 06:23:34;;;;;;;5.00;3.78;;;9.60;57.20;;;;;;4727622;30;20044;-83
2021/05/08 06:26:00;;;;;;;5.35;3.95;;;9.60;57.20;;;;;;4752816;30;20047;-84
2021/05/08 06:28:26;;;;;;;4.88;3.47;;;9.60;57.20;;;;;;4752733;30;20051;-93
2021/05/08 06:30:55;;;;;;;4.63;3.47;;;9.60;57.10;;;;;;4753078;30;20474;-90
2021/05/08 06:33:24;;;;;;;5.15;3.92;;;9.70;57.20;;;;;;4754736;30;20027;-87
2021/05/08 06:35:50;;;;;;;5.47;3.72;;;9.70;57.20;;;;;;4746934;30;20032;-96
2021/05/08 06:38:16;;;;;;;4.68;3.67;;;9.70;57.20;;;;;;4757920;30;20040;-94
2021/05/08 06:40:42;;;;;;;4.90;3.70;;;9.70;57.20;;;;;;4755892;30;20036;-93
2021/05/08 06:43:08;;;;;;;4.95;3.65;;;9.70;57.20;;;;;;4755685;30;20030;-94
2021/05/08 06:45:34;;;;;;;4.45;3.50;;;9.80;57.20;;;;;;4755330;30;20043;-95
2021/05/08 06:48:00;;;;;;;4.45;3.33;;;9.90;57.20;;;;;;4759673;30;20040;-90
2021/05/08 06:50:26;;;;;;;4.90;3.60;;;9.90;57.20;;;;;;4729409;30;20067;-96
2021/05/08 06:52:52;;;;;;;5.10;3.80;;;9.90;57.20;;;;;;4753056;30;20036;-96
2021/05/08 06:55:18;;;;;;;4.75;3.22;;;10.00;57.20;;;;;;4753241;30;20058;-94
2021/05/08 06:57:44;;;;;;;4.15;3.25;;;9.90;57.10;;;;;;4738519;30;20063;-93
2021/05/08 07:00:10;;;;;;;4.18;3.35;;;10.00;57.10;;;;;;4753391;30;20029;-96
2021/05/08 07:02:36;;;;;;;5.85;3.80;;;10.10;57.20;;;;;;4752340;30;20036;-95
2021/05/08 07:05:02;;;;;;;4.53;3.30;;;10.10;57.10;;;;;;4727656;30;20025;-94
2021/05/08 07:07:27;;;;;;;4.60;3.50;;;10.10;57.10;;;;;;4737998;30;20068;-91
2021/05/08 07:09:53;;;;;;;4.55;3.20;;;10.10;57.10;;;;;;4753512;30;20056;-91
2021/05/08 07:12:19;;;;;;;5.15;3.47;;;10.10;57.10;;;;;;4736992;30;20402;-90
2021/05/08 07:14:45;;;;;;;4.50;3.10;;;10.20;57.80;;;;;;4759862;30;20040;-94
2021/05/08 07:17:10;;;;;;;5.20;3.20;;;10.30;57.20;;;;;;4757309;30;20048;-93
2021/05/08 07:19:36;;;;;;;3.88;3.13;;;10.20;57.10;;;;;;4737979;30;20135;-90
2021/05/08 07:22:02;;;;;;;4.05;3.10;;;10.30;57.80;;;;;;4751991;30;20375;-92
2021/05/08 07:24:28;;;;;;;4.28;3.10;;;10.30;57.10;;;;;;4752826;30;20044;-92
2021/05/08 07:26:57;;;;;;;4.32;3.22;;;10.30;57.10;;;;;;4764031;30;20040;-91
2021/05/08 07:29:24;;;;;;;4.85;3.30;;;10.40;57.10;;;;;;4740019;30;20044;-92
2021/05/08 07:31:49;;;;;;;3.97;2.85;;;10.40;57.10;;;;;;4740735;30;20024;-89
2021/05/08 07:34:15;;;;;;;4.80;3.40;;;10.40;57.10;;;;;;4761224;29;20069;-86
2021/05/08 07:36:41;;;;;;;4.03;3.15;;;10.50;57.10;;;;;;4725091;30;20569;-90
2021/05/08 07:39:07;;;;;;;4.32;3.08;;;10.50;57.10;;;;;;4750529;30;20119;-94
2021/05/08 07:41:33;;;;;;;4.30;3.10;;;10.60;57.10;;;;;;4737404;30;20741;-94
2021/05/08 07:43:59;;;;;;;4.38;3.20;;;10.60;57.10;;;;;;4734664;30;20044;-95
2021/05/08 07:46:24;;;;;;;4.43;3.25;;;10.60;57.10;;;;;;4759315;30;20048;-93
2021/05/08 07:48:50;;;;;;;4.25;2.92;;;10.70;57.20;;;;;;4751706;30;20143;-92
2021/05/08 07:51:16;;;;;;;4.30;3.38;;;10.70;57.10;;;;;;4751114;30;20052;-93
2021/05/08 07:53:42;;;;;;;4.30;3.00;;;10.80;57.20;;;;;;4751777;30;20044;-91
2021/05/08 07:56:08;;;;;;;5.10;3.30;;;10.80;57.10;;;;;;4744541;30;20058;-95
2021/05/08 07:58:34;;;;;;;4.30;3.33;;;10.90;57.10;;;;;;4755896;30;20467;-89
2021/05/08 08:00:59;;;;;;;4.32;3.03;;;10.90;57.10;;;;;;4751515;30;20509;-91
2021/05/08 08:03:25;;;;;;;4.70;3.00;;;11.00;57.10;;;;;;4751556;30;20198;-92
2021/05/08 08:05:51;;;;;;;4.07;3.00;;;11.00;57.10;;;;;;4736865;30;20055;-86
2021/05/08 08:08:17;;;;;;;4.80;3.10;;;11.00;57.00;;;;;;4748107;30;20056;-86
2021/05/08 08:10:42;;;;;;;3.78;2.90;;;11.10;57.00;;;;;;4740112;30;20052;-87
2021/05/08 08:13:08;;;;;;;5.07;3.38;;;11.10;57.00;;;;;;4740259;30;20032;-89
2021/05/08 08:15:34;;;;;;;5.45;3.63;;;11.20;57.00;;;;;;4754798;30;20490;-88
2021/05/08 08:17:59;;;;;;;4.57;3.25;;;11.20;57.00;;;;;;4737974;30;20044;-88
2021/05/08 08:20:25;;;;;;;4.68;3.15;;;11.30;56.90;;;;;;4739360;30;20110;-92
2021/05/08 08:22:51;;;;;;;4.65;3.22;;;11.30;56.90;;;;;;4737575;30;20457;-86
2021/05/08 08:25:17;;;;;;;3.78;2.90;;;11.40;56.90;;;;;;4734017;30;20037;-86
2021/05/08 08:27:42;;;;;;;4.00;3.20;;;11.40;56.90;;;;;;4733730;30;20491;-91
2021/05/08 08:30:11;;;;;;;4.65;3.35;;;11.50;56.90;;;;;;4741720;30;20016;-90
2021/05/08 08:32:38;;;;;;;4.15;3.00;;;11.50;56.90;;;;;;4751450;30;20036;-91
2021/05/08 08:35:05;;;;;;;3.78;2.90;;;11.60;56.90;;;;;;4739724;30;20028;-91
2021/05/08 08:37:31;;;;;;;3.88;2.92;;;11.60;56.80;;;;;;4749942;30;20044;-89
2021/05/08 08:39:57;;;;;;;5.00;3.50;;;11.60;56.80;;;;;;4751487;30;20039;-89
2021/05/08 08:42:24;;;;;;;4.50;3.10;;;11.70;56.80;;;;;;4737489;30;20071;-90
2021/05/08 08:44:49;;;;;;;3.97;2.75;;;11.70;56.70;;;;;;4734991;30;20032;-89
2021/05/08 08:47:28;;;;;;;3.70;2.70;;;11.80;56.70;;;;;;4736806;30;20094;-84
2021/05/08 08:50:07;;;;;;;4.60;3.15;;;11.80;56.70;;;;;;4738234;30;20085;-90
2021/05/08 08:52:33;;;;;;;4.53;3.20;;;11.90;56.80;;;;;;4741115;30;20127;-88
2021/05/08 08:54:59;;;;;;;3.92;2.83;;;11.90;56.70;;;;;;4738041;30;20064;-86
2021/05/08 08:57:30;;;;;;;4.38;2.97;;;12.00;56.70;;;;;;4750851;30;20063;-88
2021/05/08 08:59:57;;;;;;;4.63;3.25;;;12.00;56.70;;;;;;4716196;30;20050;-90
2021/05/08 09:02:26;;;;;;;4.43;3.00;;;12.10;56.80;;;;;;4722793;30;20504;-90
2021/05/08 09:04:54;;;;;;;4.95;2.95;;;12.10;56.80;;;;;;4751714;30;20044;-90
2021/05/08 09:07:21;;;;;;;4.75;3.33;;;12.20;56.80;;;;;;4732707;30;20036;-89
2021/05/08 09:09:51;;;;;;;4.05;3.05;;;12.20;56.80;;;;;;4751649;30;20048;-88
2021/05/08 09:12:18;;;;;;;4.57;3.25;;;12.30;56.80;;;;;;4736284;30;20091;-91
2021/05/08 09:14:49;;;;;;;4.45;3.45;;;12.40;56.90;;;;;;4745068;30;20087;-92
2021/05/08 09:17:25;;;;;;;4.63;3.17;;;12.40;57.00;;;;;;4751976;30;20052;-93
2021/05/08 09:20:02;;;;;;;4.47;3.22;;;12.50;56.90;;;;;;4749802;30;20048;-91
2021/05/08 09:22:29;;;;;;;4.05;2.90;;;12.50;56.90;;;;;;4750502;30;20032;-90
2021/05/08 09:25:19;;;;;;;4.60;3.15;;;12.60;56.90;;;;;;4742743;30;20036;-90
2021/05/08 09:27:48;;;;;;;4.13;3.15;;;12.60;56.90;;;;;;4765523;30;20036;-90
2021/05/08 09:30:29;;;;;;;4.30;2.90;;;12.70;56.80;;;;;;4750294;30;20044;-89
2021/05/08 09:32:54;;;;;;;4.00;2.88;;;12.80;56.80;;;;;;4753149;30;20036;-86
2021/05/08 09:35:28;;;;;;;4.63;3.22;;;12.90;56.80;;;;;;4734922;30;20084;-85
2021/05/08 09:38:15;;;;;;;4.20;2.95;;;12.90;56.90;;;;;;4752871;30;20047;-92
2021/05/08 09:40:46;;;;;;;4.10;3.13;;;13.00;57.00;;;;;;4746507;30;20498;-90
2021/05/08 09:43:17;;;;;;;3.65;2.70;;;13.10;56.80;;;;;;4752479;30;20046;-91
2021/05/08 09:45:45;;;;;;;4.90;3.40;;;13.10;56.90;;;;;;4748831;30;20041;-91
2021/05/08 09:48:32;;;;;;;4.30;3.10;;;13.20;56.90;;;;;;4754033;30;20040;-90
2021/05/08 09:51:16;;;;;;;4.07;3.00;;;13.30;57.00;;;;;;4730793;30;20037;-90
2021/05/08 09:53:43;;;;;;;5.00;2.78;;;13.30;57.00;;;;;;4753373;30;20028;-91
2021/05/08 09:56:35;;;;;;;3.60;2.70;;;13.40;56.90;;;;;;4752783;30;20131;-92
2021/05/08 09:59:24;;;;;;;3.45;2.63;;;13.50;57.00;;;;;;4755704;30;20028;-91
2021/05/08 10:02:13;;;;;;;4.75;2.70;;;13.60;56.90;;;;;;4741532;30;20048;-92
2021/05/08 10:04:45;;;;;;;3.20;2.30;;;13.60;56.90;;;;;;4736615;29;20056;-93
2021/05/08 10:07:11;;;;;;;3.65;2.40;;;13.70;56.80;;;;;;4740526;30;20076;-94
2021/05/08 10:09:38;;;;;;;3.88;2.53;;;13.80;56.80;;;;;;4750150;30;20405;-85
2021/05/08 10:12:10;;;;;;;4.05;2.80;;;13.80;56.80;;;;;;4747410;30;20042;-84
2021/05/08 10:14:37;;;;;;;3.95;2.85;;;13.90;56.70;;;;;;4752149;30;20067;-85
2021/05/08 10:17:03;;;;;;;4.07;2.75;;;13.90;56.70;;;;;;4752640;30;20040;-86
2021/05/08 10:19:31;;;;;;;4.03;2.47;;;14.00;56.70;;;;;;4738125;30;20040;-90
2021/05/08 10:21:58;;;;;;;4.00;2.72;;;14.10;56.60;;;;;;4743041;30;20033;-91
2021/05/08 10:24:28;;;;;;;4.03;2.58;;;14.10;56.60;;;;;;4738837;30;20060;-93
2021/05/08 10:26:58;;;;;;;2.92;2.25;;;14.20;56.70;;;;;;4742826;30;20060;-84
2021/05/08 10:29:29;;;;;;;3.22;2.40;;;14.30;56.70;;;;;;4735818;30;20098;-84
2021/05/08 10:31:59;;;;;;;3.67;2.38;;;14.40;56.70;;;;;;4753425;30;20370;-85
2021/05/08 10:34:39;;;;;;;3.35;2.42;;;14.40;56.60;;;;;;4751667;30;20056;-87
2021/05/08 10:37:12;;;;;;;3.95;2.65;;;14.50;56.60;;;;;;4764983;30;20101;-86
2021/05/08 10:40:05;;;;;;;3.33;2.40;;;14.50;56.60;;;;;;4752371;30;20508;-87
2021/05/08 10:42:41;;;;;;;3.40;2.13;;;14.60;56.60;;;;;;4750511;30;20044;-86
2021/05/08 10:45:14;;;;;;;3.35;2.17;;;14.70;56.50;;;;;;4752749;30;20032;-86
2021/05/08 10:47:56;;;;;;;3.10;2.22;;;14.70;56.40;;;;;;4751002;30;20036;-86
2021/05/08 10:50:36;;;;;;;2.80;2.08;;;14.80;56.40;;;;;;4736698;30;20151;-86
2021/05/08 10:53:02;;;;;;;3.42;2.25;;;14.80;56.30;;;;;;4751363;30;20123;-86
2021/05/08 10:55:30;;;;;;;4.07;2.28;;;14.90;56.20;;;;;;4751400;30;20123;-86
2021/05/08 10:58:14;;;;;;;3.13;2.28;;;14.90;56.20;;;;;;4750993;30;20071;-88
2021/05/08 11:00:59;;;;;;;2.58;1.90;;;15.00;56.30;;;;;;4750003;30;20297;-88
2021/05/08 11:03:30;;;;;;;2.90;2.10;;;15.00;56.20;;;;;;4754760;30;20151;-87
2021/05/08 11:06:02;;;;;;;3.03;2.10;;;15.10;56.10;;;;;;4749344;30;20032;-89
2021/05/08 11:08:29;;;;;;;3.35;2.40;;;15.20;56.10;;;;;;4755410;30;20059;-87
2021/05/08 11:10:59;;;;;;;3.33;2.20;;;15.20;56.00;;;;;;4736151;30;20070;-87
2021/05/08 11:13:41;;;;;;;3.42;2.10;;;15.30;56.00;;;;;;4751699;30;20032;-90
2021/05/08 11:16:15;;;;;;;3.25;2.05;;;15.30;56.00;;;;;;4734867;30;20043;-81
2021/05/08 11:18:44;;;;;;;3.20;2.13;;;15.40;55.90;;;;;;4749916;30;20067;-82
2021/05/08 11:21:10;;;;;;;2.35;1.88;;;15.40;55.90;;;;;;4750713;30;20117;-83
2021/05/08 11:23:52;;;;;;;2.65;1.95;;;15.40;55.90;;;;;;4751375;30;20070;-82
2021/05/08 11:26:22;;;;;;;2.65;1.90;;;15.40;55.80;;;;;;4752368;30;20051;-88
2021/05/08 11:29:03;;;;;;;3.63;2.10;;;15.50;55.80;;;;;;4751520;30;20032;-89
2021/05/08 11:31:31;;;;;;;3.10;1.80;;;15.50;55.80;;;;;;4734960;30;20047;-86
2021/05/08 11:34:09;;;;;;;2.95;1.90;;;15.60;55.70;;;;;;4751571;30;20024;-86
2021/05/08 11:36:53;;;;;;;2.40;1.73;;;15.60;55.80;;;;;;4761457;30;20043;-86
2021/05/08 11:39:53;;;;;;;2.88;1.80;;;15.60;55.80;;;;;;4737883;29;20087;-86
2021/05/08 11:42:21;;;;;;;2.58;1.95;;;15.60;55.80;;;;;;4750744;30;20119;-85
2021/05/08 11:44:52;;;;;;;2.45;1.70;;;15.70;55.70;;;;;;4751388;30;20044;-86
2021/05/08 11:47:34;;;;;;;2.22;1.70;;;15.70;55.70;;;;;;4733045;30;20050;-88
2021/05/08 11:50:07;;;;;;;2.15;1.73;;;15.70;55.70;;;;;;4754436;30;20055;-87
2021/05/08 11:52:51;;;;;;;2.65;1.90;;;15.70;55.70;;;;;;4740027;30;20032;-96
2021/05/08 11:55:23;;;;;;;2.15;1.63;;;15.70;55.70;;;;;;4732623;30;20106;-89
2021/05/08 11:57:54;;;;;;;2.50;1.75;;;15.70;55.70;;;;;;4743218;30;20041;-87
2021/05/08 12:00:22;;;;;;;2.78;1.75;;;15.70;55.70;;;;;;4755495;30;20483;-88
2021/05/08 12:02:48;;;;;;;2.42;1.70;;;15.80;55.70;;;;;;4741639;30;20056;-85
2021/05/08 12:05:15;;;;;;;1.70;1.60;;;15.80;55.70;;;;;;4731541;30;20053;-87
2021/05/08 12:07:44;;;;;;;2.30;1.70;;;15.80;55.70;;;;;;4734609;30;20376;-87
2021/05/08 12:10:11;;;;;;;2.28;1.75;;;15.80;55.70;;;;;;4747098;30;20056;-90
2021/05/08 12:12:57;;;;;;;3.45;2.00;;;15.90;55.80;;;;;;4745381;30;20040;-93
2021/05/08 12:15:27;;;;;;;2.15;1.65;;;15.80;55.80;;;;;;4757320;30;20056;-86
2021/05/08 12:17:55;;;;;;;2.33;1.80;;;15.80;55.70;;;;;;4752974;30;20052;-87
2021/05/08 12:20:23;;;;;;;2.00;1.58;;;15.80;55.70;;;;;;4733760;30;20540;-88
2021/05/08 12:22:51;;;;;;;2.15;1.55;;;15.90;55.80;;;;;;4749320;30;20123;-86
2021/05/08 12:25:21;;;;;;;1.92;1.65;;;15.80;55.80;;;;;;4734349;30;20044;-87
2021/05/08 12:27:48;;;;;;;3.00;1.90;;;15.80;55.80;;;;;;4733935;30;20044;-88
2021/05/08 12:30:15;;;;;;;2.35;1.67;;;15.80;55.80;;;;;;4749517;30;20091;-89
2021/05/08 12:32:53;;;;;;;2.33;1.90;;;15.90;55.90;;;;;;4748972;30;20081;-85
2021/05/08 12:35:20;;;;;;;2.90;1.90;;;15.80;56.00;;;;;;4743711;30;20139;-86
2021/05/08 12:37:47;;;;;;;3.28;1.83;;;15.90;56.00;;;;;;4734476;30;20085;-89
2021/05/08 12:40:14;;;;;;;2.55;2.00;;;15.90;56.00;;;;;;4731130;30;20065;-87
2021/05/08 12:42:47;;;;;;;2.80;1.90;;;15.90;56.10;;;;;;4765974;30;20041;-85
2021/05/08 12:45:14;;;;;;;2.63;2.00;;;15.80;56.10;;;;;;4749803;29;20107;-85
2021/05/08 12:47:45;;;;;;;2.47;2.03;;;15.80;56.10;;;;;;4726339;30;20098;-84
2021/05/08 12:50:13;;;;;;;3.42;1.83;;;15.80;56.10;;;;;;4749519;30;20051;-85
2021/05/08 12:52:42;;;;;;;2.30;1.80;;;15.80;56.20;;;;;;4751358;30;20035;-86
2021/05/08 12:55:22;;;;;;;2.10;1.80;;;15.80;56.20;;;;;;4752456;30;20059;-84
2021/05/08 12:57:48;;;;;;;2.75;2.08;;;15.80;56.30;;;;;;4751839;30;20075;-84